createdAt,value
2019-05-01T00:01:06.261Z,80.10
2019-05-01T00:03:36.523Z,80.10
2019-05-01T00:06:06.788Z,80.30
2019-05-01T00:08:35.414Z,80.30
2019-05-01T00:11:04.015Z,80.40
2019-05-01T00:13:32.669Z,80.50
2019-05-01T00:16:01.330Z,80.50
2019-05-01T00:18:29.998Z,80.80
2019-05-01T00:20:58.894Z,80.50
2019-05-01T00:23:27.499Z,80.70
2019-05-01T00:25:56.175Z,80.70
2019-05-01T00:28:24.843Z,80.60
2019-05-01T00:30:53.538Z,80.80
2019-05-01T00:33:22.142Z,80.80
2019-05-01T00:35:50.779Z,80.70
2019-05-01T00:38:19.366Z,80.60
2019-05-01T00:40:48.032Z,80.50
2019-05-01T00:43:16.699Z,80.40
2019-05-01T00:45:45.318Z,80.30
2019-05-01T00:48:14.013Z,80.00
2019-05-01T00:50:42.602Z,79.90
2019-05-01T00:53:11.411Z,80.20
2019-05-01T00:55:53.967Z,79.80
2019-05-01T00:58:33.399Z,79.50
2019-05-01T01:01:20.155Z,79.60
2019-05-01T01:03:48.852Z,79.70
2019-05-01T01:06:17.528Z,79.70
2019-05-01T01:08:46.227Z,79.80
2019-05-01T01:11:14.838Z,79.90
2019-05-01T01:13:43.436Z,80.00
2019-05-01T01:16:12.071Z,79.70
2019-05-01T01:18:40.686Z,79.70
2019-05-01T01:21:09.383Z,79.70
2019-05-01T01:23:37.992Z,79.60
2019-05-01T01:26:07.779Z,79.40
2019-05-01T01:28:36.386Z,79.40
2019-05-01T01:31:05.307Z,79.10
2019-05-01T01:33:33.907Z,78.90
2019-05-01T01:36:02.659Z,78.80
2019-05-01T01:38:31.266Z,78.70
2019-05-01T01:41:00.199Z,78.40
2019-05-01T01:43:46.835Z,78.30
2019-05-01T01:46:32.129Z,78.20
2019-05-01T01:49:00.734Z,78.00
2019-05-01T01:51:29.703Z,78.00
2019-05-01T01:53:59.124Z,78.10
2019-05-01T01:56:28.006Z,78.10
2019-05-01T01:58:57.303Z,78.20
2019-05-01T02:01:43.785Z,78.00
2019-05-01T02:04:19.910Z,78.10
2019-05-01T02:06:50.426Z,78.00
2019-05-01T02:09:19.021Z,78.00
2019-05-01T02:11:48.528Z,77.80
2019-05-01T02:14:17.267Z,78.10
2019-05-01T02:16:45.869Z,77.70
2019-05-01T02:19:16.039Z,77.40
2019-05-01T02:21:44.723Z,77.20
2019-05-01T02:24:13.332Z,77.10
2019-05-01T02:26:43.855Z,77.00
2019-05-01T02:29:26.486Z,76.80
2019-05-01T02:31:56.783Z,76.80
2019-05-01T02:34:27.186Z,76.70
2019-05-01T02:36:58.989Z,76.60
2019-05-01T02:39:29.600Z,76.60
2019-05-01T02:42:01.232Z,76.70
2019-05-01T02:44:42.226Z,76.10
2019-05-01T02:47:13.843Z,76.00
2019-05-01T02:49:48.439Z,75.90
2019-05-01T02:52:17.870Z,75.90
2019-05-01T02:54:48.286Z,75.80
2019-05-01T02:57:20.539Z,75.70
2019-05-01T02:59:51.790Z,75.70
2019-05-01T03:02:23.608Z,75.80
2019-05-01T03:04:54.081Z,76.00
2019-05-01T03:07:25.055Z,76.30
2019-05-01T03:09:54.293Z,76.30
2019-05-01T03:12:25.258Z,76.50
2019-05-01T03:14:56.005Z,76.60
2019-05-01T03:17:41.683Z,76.70
2019-05-01T03:20:20.971Z,76.70
2019-05-01T03:23:08.276Z,76.60
2019-05-01T03:25:37.243Z,76.60
2019-05-01T03:28:26.670Z,76.30
2019-05-01T03:30:55.488Z,76.30
2019-05-01T03:33:24.559Z,76.30
2019-05-01T03:35:53.499Z,76.00
2019-05-01T03:38:22.602Z,75.80
2019-05-01T03:40:51.688Z,75.70
2019-05-01T03:43:20.421Z,75.40
2019-05-01T03:45:49.446Z,75.30
2019-05-01T03:48:18.683Z,75.00
2019-05-01T03:50:47.910Z,75.80
2019-05-01T03:53:17.316Z,75.30
2019-05-01T03:55:46.388Z,75.00
2019-05-01T03:58:15.403Z,74.70
2019-05-01T04:00:48.483Z,74.70
2019-05-01T04:03:35.400Z,74.80
2019-05-01T04:06:04.213Z,74.80
2019-05-01T04:08:33.527Z,75.00
2019-05-01T04:11:02.314Z,74.90
2019-05-01T04:13:31.643Z,75.00
2019-05-01T04:16:00.682Z,75.00
2019-05-01T04:18:29.694Z,75.10
2019-05-01T04:20:59.037Z,74.90
2019-05-01T04:23:28.744Z,74.90
2019-05-01T04:25:57.482Z,75.00
2019-05-01T04:28:37.167Z,75.00
2019-05-01T04:31:24.010Z,74.80
2019-05-01T04:33:54.780Z,74.40
2019-05-01T04:36:37.003Z,74.10
2019-05-01T04:39:07.995Z,74.10
2019-05-01T04:41:37.038Z,73.80
2019-05-01T04:44:05.758Z,73.90
2019-05-01T04:46:35.148Z,74.10
2019-05-01T04:49:04.212Z,74.20
2019-05-01T04:51:33.218Z,74.20
2019-05-01T04:54:02.017Z,74.20
2019-05-01T04:56:30.717Z,74.20
2019-05-01T04:59:00.111Z,74.00
2019-05-01T05:01:30.627Z,74.50
2019-05-01T05:03:59.626Z,73.80
2019-05-01T05:06:28.372Z,73.50
2019-05-01T05:08:57.569Z,73.70
2019-05-01T05:11:30.752Z,73.60
2019-05-01T05:14:07.244Z,73.30
2019-05-01T05:16:54.279Z,73.30
2019-05-01T05:19:23.083Z,72.80
2019-05-01T05:21:52.224Z,72.40
2019-05-01T05:24:21.022Z,72.40
2019-05-01T05:26:50.027Z,72.30
2019-05-01T05:29:19.962Z,71.90
2019-05-01T05:31:49.784Z,71.80
2019-05-01T05:34:20.556Z,70.90
2019-05-01T05:36:51.228Z,71.20
2019-05-01T05:39:23.548Z,71.10
2019-05-01T05:41:54.183Z,70.70
2019-05-01T05:44:23.673Z,70.30
2019-05-01T05:46:52.338Z,69.10
2019-05-01T05:49:21.167Z,69.70
2019-05-01T05:51:52.998Z,69.50
2019-05-01T05:54:40.050Z,69.00
2019-05-01T05:57:15.775Z,68.40
2019-05-01T05:59:53.479Z,68.30
2019-05-01T06:02:26.079Z,67.70
2019-05-01T06:05:01.567Z,67.90
2019-05-01T06:07:37.347Z,66.70
2019-05-01T06:10:23.115Z,65.70
2019-05-01T06:12:55.662Z,63.60
2019-05-01T06:15:26.743Z,62.70
2019-05-01T06:17:59.095Z,61.50
2019-05-01T06:20:28.951Z,61.20
2019-05-01T06:23:07.038Z,60.00
2019-05-01T06:25:42.774Z,59.60
2019-05-01T06:28:12.574Z,59.50
2019-05-01T06:30:42.135Z,59.50
2019-05-01T06:33:11.948Z,59.10
2019-05-01T06:35:40.600Z,58.90
2019-05-01T06:38:15.136Z,58.90
2019-05-01T06:40:46.695Z,59.20
2019-05-01T06:43:25.371Z,58.50
2019-05-01T06:45:55.031Z,58.40
2019-05-01T06:48:28.131Z,58.50
2019-05-01T06:51:17.693Z,57.90
2019-05-01T06:53:45.570Z,58.20
2019-05-01T06:56:14.188Z,57.00
2019-05-01T06:58:42.867Z,57.50
2019-05-01T07:01:13.725Z,57.50
2019-05-01T07:03:47.014Z,57.20
2019-05-01T07:06:14.300Z,57.70
2019-05-01T07:08:42.701Z,57.40
2019-05-01T07:11:15.597Z,57.50
2019-05-01T07:13:55.834Z,57.60
2019-05-01T07:16:24.690Z,57.50
2019-05-01T07:18:57.966Z,57.50
2019-05-01T07:21:27.699Z,57.40
2019-05-01T07:23:55.916Z,57.60
2019-05-01T07:26:24.594Z,56.60
2019-05-01T07:28:54.992Z,56.50
2019-05-01T07:31:25.922Z,56.00
2019-05-01T07:33:54.190Z,55.40
2019-05-01T07:36:22.805Z,55.00
2019-05-01T07:38:51.548Z,55.50
2019-05-01T07:41:20.255Z,55.50
2019-05-01T07:43:54.828Z,57.80
2019-05-01T07:46:26.014Z,58.10
2019-05-01T07:48:54.918Z,57.30
2019-05-01T07:51:23.523Z,57.30
2019-05-01T07:53:52.373Z,55.10
2019-05-01T07:56:22.778Z,53.40
2019-05-01T07:58:53.408Z,52.70
2019-05-01T08:01:23.774Z,51.70
2019-05-01T08:03:52.426Z,51.60
2019-05-01T08:06:22.780Z,50.70
2019-05-01T08:08:51.567Z,50.00
2019-05-01T08:11:20.287Z,48.90
2019-05-01T08:13:48.959Z,48.70
2019-05-01T08:16:17.658Z,48.10
2019-05-01T08:18:47.994Z,47.40
2019-05-01T08:21:26.041Z,48.00
2019-05-01T08:23:55.597Z,48.70
2019-05-01T08:26:24.380Z,50.30
2019-05-01T08:29:11.213Z,52.90
2019-05-01T08:31:43.955Z,54.60
2019-05-01T08:34:25.306Z,55.00
2019-05-01T08:36:53.826Z,54.60
2019-05-01T08:39:22.530Z,53.50
2019-05-01T08:41:51.230Z,54.60
2019-05-01T08:44:24.907Z,54.50
2019-05-01T08:47:11.972Z,55.00
2019-05-01T08:49:54.314Z,55.20
2019-05-01T08:52:22.993Z,55.30
2019-05-01T08:54:54.540Z,54.80
2019-05-01T08:57:22.091Z,55.00
2019-05-01T08:59:50.768Z,56.00
2019-05-01T09:02:19.480Z,55.80
2019-05-01T09:04:48.093Z,54.80
2019-05-01T09:07:19.187Z,54.60
2019-05-01T09:09:50.363Z,54.00
2019-05-01T09:12:19.048Z,54.30
2019-05-01T09:14:47.729Z,54.20
2019-05-01T09:17:16.369Z,53.80
2019-05-01T09:19:45.122Z,54.00
2019-05-01T09:22:13.762Z,54.20
2019-05-01T09:24:42.449Z,53.50
2019-05-01T09:27:29.270Z,53.90
2019-05-01T09:29:56.718Z,53.10
2019-05-01T09:32:25.405Z,50.80
2019-05-01T09:34:54.129Z,47.00
2019-05-01T09:37:22.822Z,45.20
2019-05-01T09:39:51.468Z,45.20
2019-05-01T09:42:23.871Z,42.90
2019-05-01T09:44:50.618Z,43.20
2019-05-01T09:47:19.508Z,44.00
2019-05-01T09:49:48.855Z,43.80
2019-05-01T09:52:24.825Z,44.10
2019-05-01T09:54:58.318Z,43.30
2019-05-01T09:57:27.023Z,43.10
2019-05-01T09:59:55.631Z,43.20
2019-05-01T10:02:24.325Z,43.20
2019-05-01T10:04:53.028Z,43.80
2019-05-01T10:07:24.020Z,43.50
2019-05-01T10:09:52.438Z,43.50
2019-05-01T10:12:22.375Z,42.10
2019-05-01T10:14:51.042Z,41.60
2019-05-01T10:17:19.694Z,41.20
2019-05-01T10:19:50.182Z,41.20
2019-05-01T10:22:18.725Z,42.60
2019-05-01T10:24:47.461Z,42.60
2019-05-01T10:27:17.759Z,41.90
2019-05-01T10:30:04.551Z,40.60
2019-05-01T10:32:34.913Z,40.10
2019-05-01T10:35:08.278Z,40.30
2019-05-01T10:37:36.943Z,40.70
2019-05-01T10:40:07.116Z,40.30
2019-05-01T10:42:35.849Z,40.20
2019-05-01T10:45:06.208Z,39.60
2019-05-01T10:47:35.008Z,39.50
2019-05-01T10:50:04.065Z,39.70
2019-05-01T10:52:32.819Z,39.30
2019-05-01T10:55:01.507Z,39.10
2019-05-01T10:57:35.028Z,39.30
2019-05-01T11:00:01.273Z,39.90
2019-05-01T11:02:29.966Z,40.30
2019-05-01T11:04:58.778Z,39.80
2019-05-01T11:07:27.451Z,40.00
2019-05-01T11:09:56.183Z,39.50
2019-05-01T11:12:24.866Z,38.70
2019-05-01T11:14:53.559Z,38.70
2019-05-01T11:17:22.449Z,39.50
2019-05-01T11:19:51.079Z,39.10
2019-05-01T11:22:19.849Z,39.30
2019-05-01T11:24:48.572Z,39.00
2019-05-01T11:27:17.362Z,38.40
2019-05-01T11:29:46.059Z,38.50
2019-05-01T11:32:16.304Z,37.70
2019-05-01T11:34:49.349Z,37.40
2019-05-01T11:37:34.773Z,37.70
2019-05-01T11:40:06.016Z,37.60
2019-05-01T11:42:34.799Z,37.30
2019-05-01T11:45:05.166Z,36.50
2019-05-01T11:47:33.828Z,37.50
2019-05-01T11:50:02.532Z,37.00
2019-05-01T11:52:31.148Z,37.00
2019-05-01T11:54:59.869Z,35.80
2019-05-01T11:57:28.543Z,35.40
2019-05-01T11:59:57.213Z,35.00
2019-05-01T12:02:25.924Z,35.10
2019-05-01T12:04:54.606Z,35.50
2019-05-01T12:07:23.217Z,36.30
2019-05-01T12:09:51.830Z,36.40
2019-05-01T12:12:22.171Z,35.40
2019-05-01T12:14:50.795Z,34.30
2019-05-01T12:17:21.067Z,34.60
2019-05-01T12:19:49.736Z,33.90
2019-05-01T12:22:18.345Z,33.10
2019-05-01T12:24:46.979Z,33.00
2019-05-01T12:27:15.663Z,33.10
2019-05-01T12:29:44.372Z,33.60
2019-05-01T12:32:13.163Z,33.60
2019-05-01T12:34:41.896Z,33.70
2019-05-01T12:37:21.371Z,32.00
2019-05-01T12:39:50.079Z,31.40
2019-05-01T12:42:20.311Z,31.00
2019-05-01T12:44:48.943Z,30.00
2019-05-01T12:47:19.251Z,29.90
2019-05-01T12:49:49.532Z,29.90
2019-05-01T12:52:19.764Z,28.00
2019-05-01T12:54:52.679Z,26.70
2019-05-01T12:57:21.381Z,25.60
2019-05-01T12:59:49.982Z,25.30
2019-05-01T13:02:18.771Z,25.20
2019-05-01T13:04:47.420Z,24.80
2019-05-01T13:07:16.416Z,24.80
2019-05-01T13:09:45.023Z,24.20
2019-05-01T13:12:13.800Z,24.50
2019-05-01T13:14:42.432Z,24.00
2019-05-01T13:17:11.033Z,23.20
2019-05-01T13:19:39.741Z,23.30
2019-05-01T13:22:08.430Z,23.90
2019-05-01T13:24:38.762Z,23.00
2019-05-01T13:27:15.416Z,23.50
2019-05-01T13:29:57.996Z,24.70
2019-05-01T13:32:43.522Z,24.60
2019-05-01T13:35:12.544Z,23.80
2019-05-01T13:37:41.229Z,23.50
2019-05-01T13:40:10.750Z,22.80
2019-05-01T13:42:39.355Z,23.50
2019-05-01T13:45:08.744Z,23.00
2019-05-01T13:47:37.568Z,23.00
2019-05-01T13:50:10.306Z,23.30
2019-05-01T13:52:38.950Z,22.80
2019-05-01T13:55:08.053Z,21.90
2019-05-01T13:57:36.824Z,22.30
2019-05-01T14:00:08.863Z,24.80
2019-05-01T14:02:37.628Z,24.40
2019-05-01T14:05:06.269Z,24.20
2019-05-01T14:07:35.040Z,24.70
2019-05-01T14:10:04.639Z,25.10
2019-05-01T14:12:33.336Z,25.10
2019-05-01T14:15:02.050Z,24.70
2019-05-01T14:17:30.891Z,25.40
2019-05-01T14:20:06.904Z,26.40
2019-05-01T14:22:43.213Z,25.60
2019-05-01T14:25:16.970Z,26.10
2019-05-01T14:27:48.590Z,27.30
2019-05-01T14:30:17.569Z,28.80
2019-05-01T14:32:46.289Z,29.50
2019-05-01T14:35:15.468Z,30.10
2019-05-01T14:37:44.200Z,30.80
2019-05-01T14:40:12.859Z,32.00
2019-05-01T14:42:41.557Z,32.10
2019-05-01T14:45:10.912Z,31.40
2019-05-01T14:47:39.599Z,31.50
2019-05-01T14:50:08.463Z,31.40
2019-05-01T14:52:37.074Z,31.40
2019-05-01T14:55:08.281Z,31.70
2019-05-01T14:57:37.032Z,32.00
2019-05-01T15:00:09.114Z,33.00
2019-05-01T15:02:37.772Z,33.30
2019-05-01T15:05:07.388Z,33.00
2019-05-01T15:07:43.319Z,32.90
2019-05-01T15:10:07.012Z,32.40
2019-05-01T15:12:35.696Z,32.60
2019-05-01T15:15:25.239Z,32.90
2019-05-01T15:17:55.571Z,32.70
2019-05-01T15:20:24.351Z,32.90
2019-05-01T15:22:52.967Z,33.10
2019-05-01T15:25:21.632Z,32.80
2019-05-01T15:27:50.399Z,32.50
2019-05-01T15:30:19.268Z,32.40
2019-05-01T15:32:47.943Z,32.80
2019-05-01T15:35:16.626Z,33.00
2019-05-01T15:37:56.086Z,32.30
2019-05-01T15:40:20.120Z,32.50
2019-05-01T15:42:56.442Z,32.60
2019-05-01T15:45:25.127Z,32.40
2019-05-01T15:47:53.829Z,32.40
2019-05-01T15:50:22.498Z,32.40
2019-05-01T15:52:51.190Z,33.00
2019-05-01T15:55:19.893Z,33.20
2019-05-01T15:57:48.494Z,33.50
2019-05-01T16:00:19.590Z,33.80
2019-05-01T16:02:48.330Z,34.10
2019-05-01T16:05:17.062Z,34.00
2019-05-01T16:07:45.791Z,34.20
2019-05-01T16:10:16.846Z,34.70
2019-05-01T16:12:47.148Z,33.90
2019-05-01T16:15:17.407Z,34.40
2019-05-01T16:17:46.088Z,34.70
2019-05-01T16:20:16.900Z,35.00
2019-05-01T16:22:45.227Z,35.40
2019-05-01T16:25:14.087Z,35.60
2019-05-01T16:27:42.687Z,34.90
2019-05-01T16:30:13.081Z,35.10
2019-05-01T16:32:41.769Z,35.00
2019-05-01T16:35:10.368Z,34.80
2019-05-01T16:37:39.062Z,34.80
2019-05-01T16:40:21.445Z,34.70
2019-05-01T16:42:50.152Z,34.70
2019-05-01T16:45:18.947Z,35.30
2019-05-01T16:47:47.546Z,35.70
2019-05-01T16:50:16.928Z,35.90
2019-05-01T16:52:45.821Z,35.60
2019-05-01T16:55:14.986Z,36.00
2019-05-01T16:57:44.551Z,36.30
2019-05-01T17:00:14.385Z,36.60
2019-05-01T17:03:01.323Z,36.80
2019-05-01T17:05:43.655Z,36.70
2019-05-01T17:08:13.972Z,36.90
2019-05-01T17:10:47.002Z,37.20
2019-05-01T17:13:16.032Z,37.20
2019-05-01T17:15:46.350Z,37.60
2019-05-01T17:18:15.070Z,37.70
2019-05-01T17:20:43.802Z,37.90
2019-05-01T17:23:12.494Z,38.20
2019-05-01T17:25:41.302Z,38.50
2019-05-01T17:28:10.052Z,38.40
2019-05-01T17:30:41.248Z,38.40
2019-05-01T17:33:10.119Z,38.40
2019-05-01T17:35:41.766Z,38.70
2019-05-01T17:38:09.141Z,38.80
2019-05-01T17:40:39.338Z,39.00
2019-05-01T17:43:12.814Z,39.10
2019-05-01T17:45:38.372Z,39.10
2019-05-01T17:48:07.075Z,39.30
2019-05-01T17:50:35.783Z,39.20
2019-05-01T17:53:04.644Z,39.70
2019-05-01T17:55:33.343Z,39.70
2019-05-01T17:58:02.077Z,40.00
2019-05-01T18:00:38.233Z,40.20
2019-05-01T18:03:11.760Z,40.30
2019-05-01T18:06:01.279Z,41.30
2019-05-01T18:08:30.631Z,40.70
2019-05-01T18:10:59.382Z,40.80
2019-05-01T18:13:27.995Z,41.10
2019-05-01T18:15:56.763Z,41.40
2019-05-01T18:18:25.463Z,41.40
2019-05-01T18:20:54.136Z,41.50
2019-05-01T18:23:42.785Z,41.90
2019-05-01T18:26:21.213Z,42.10
2019-05-01T18:28:51.554Z,42.40
2019-05-01T18:31:28.010Z,42.80
2019-05-01T18:34:02.382Z,42.50
2019-05-01T18:36:30.101Z,42.90
2019-05-01T18:39:16.296Z,42.40
2019-05-01T18:41:41.214Z,42.40
2019-05-01T18:44:11.274Z,41.90
2019-05-01T18:46:40.147Z,41.70
2019-05-01T18:49:08.838Z,41.40
2019-05-01T18:51:40.645Z,41.20
2019-05-01T18:54:07.830Z,41.20
2019-05-01T18:56:38.142Z,41.60
2019-05-01T18:59:07.456Z,42.20
2019-05-01T19:01:36.173Z,42.70
2019-05-01T19:04:06.322Z,43.50
2019-05-01T19:06:41.779Z,44.10
2019-05-01T19:09:14.800Z,45.30
2019-05-01T19:11:38.873Z,46.30
2019-05-01T19:14:08.751Z,47.00
2019-05-01T19:16:39.980Z,48.40
2019-05-01T19:19:07.685Z,49.80
2019-05-01T19:21:41.911Z,50.70
2019-05-01T19:24:08.655Z,52.20
2019-05-01T19:26:38.177Z,52.30
2019-05-01T19:29:07.919Z,52.70
2019-05-01T19:31:36.668Z,53.10
2019-05-01T19:34:05.491Z,53.40
2019-05-01T19:36:34.347Z,53.50
2019-05-01T19:39:06.804Z,53.70
2019-05-01T19:41:36.588Z,53.90
2019-05-01T19:44:05.667Z,54.20
2019-05-01T19:46:34.383Z,54.20
2019-05-01T19:49:03.233Z,54.20
2019-05-01T19:51:32.339Z,54.40
2019-05-01T19:54:01.095Z,54.50
2019-05-01T19:56:29.942Z,54.60
2019-05-01T19:58:58.668Z,54.80
2019-05-01T20:01:27.305Z,55.00
2019-05-01T20:03:56.013Z,55.10
2019-05-01T20:06:24.726Z,55.50
2019-05-01T20:08:53.708Z,55.70
2019-05-01T20:11:22.483Z,56.20
2019-05-01T20:13:51.148Z,56.50
2019-05-01T20:16:21.156Z,56.90
2019-05-01T20:18:49.851Z,57.30
2019-05-01T20:21:18.597Z,57.50
2019-05-01T20:23:47.345Z,57.80
2019-05-01T20:26:15.948Z,58.30
2019-05-01T20:28:44.602Z,58.20
2019-05-01T20:31:14.651Z,58.40
2019-05-01T20:33:44.508Z,58.80
2019-05-01T20:36:13.536Z,58.90
2019-05-01T20:38:42.266Z,59.00
2019-05-01T20:41:16.018Z,59.20
2019-05-01T20:43:43.335Z,59.50
2019-05-01T20:46:11.747Z,59.50
2019-05-01T20:48:40.461Z,60.00
2019-05-01T20:51:09.101Z,60.00
2019-05-01T20:53:37.868Z,60.10
2019-05-01T20:56:17.181Z,60.30
2019-05-01T20:58:46.054Z,60.50
2019-05-01T21:01:14.843Z,61.00
2019-05-01T21:03:45.178Z,60.70
2019-05-01T21:06:27.846Z,60.80
2019-05-01T21:08:56.595Z,60.80
2019-05-01T21:11:27.108Z,60.90
2019-05-01T21:14:14.821Z,61.10
2019-05-01T21:16:26.198Z,61.30
2019-05-01T21:18:55.003Z,61.40
2019-05-01T21:21:24.142Z,61.50
2019-05-01T21:23:56.662Z,61.80
2019-05-01T21:26:23.514Z,62.50
2019-05-01T21:28:54.018Z,61.90
2019-05-01T21:31:24.012Z,62.00
2019-05-01T21:33:53.602Z,62.10
2019-05-01T21:36:22.423Z,62.30
2019-05-01T21:38:51.022Z,62.50
2019-05-01T21:41:19.630Z,62.70
2019-05-01T21:43:48.344Z,62.80
2019-05-01T21:46:17.003Z,63.10
2019-05-01T21:48:45.662Z,63.40
2019-05-01T21:51:14.286Z,63.60
2019-05-01T21:53:46.361Z,63.90
2019-05-01T21:56:16.310Z,64.00
2019-05-01T21:58:45.294Z,64.30
2019-05-01T22:01:14.099Z,64.30
2019-05-01T22:03:42.803Z,64.50
2019-05-01T22:06:15.431Z,64.80
2019-05-01T22:08:41.786Z,65.00
2019-05-01T22:11:10.569Z,65.20
2019-05-01T22:13:39.249Z,65.20
2019-05-01T22:16:18.469Z,65.40
2019-05-01T22:18:50.767Z,65.50
2019-05-01T22:21:26.982Z,65.70
2019-05-01T22:24:13.373Z,65.70
2019-05-01T22:26:46.486Z,65.70
2019-05-01T22:29:19.458Z,65.70
2019-05-01T22:32:04.905Z,65.90
2019-05-01T22:34:35.254Z,65.80
2019-05-01T22:37:03.946Z,65.90
2019-05-01T22:39:34.294Z,65.90
2019-05-01T22:42:02.971Z,66.20
2019-05-01T22:44:31.974Z,66.30
2019-05-01T22:47:00.645Z,66.30
2019-05-01T22:49:29.282Z,66.30
2019-05-01T22:51:57.967Z,66.50
2019-05-01T22:54:26.667Z,66.70
2019-05-01T22:56:55.277Z,66.90
2019-05-01T22:59:23.914Z,67.00
2019-05-01T23:01:54.249Z,67.20
2019-05-01T23:04:23.007Z,67.60
2019-05-01T23:06:51.614Z,68.00
2019-05-01T23:09:27.866Z,68.00
2019-05-01T23:11:53.735Z,68.20
2019-05-01T23:14:23.143Z,68.20
2019-05-01T23:16:53.459Z,68.50
2019-05-01T23:19:22.749Z,68.70
2019-05-01T23:21:52.652Z,69.40
2019-05-01T23:24:21.463Z,69.70
2019-05-01T23:26:51.840Z,69.00
2019-05-01T23:29:20.649Z,69.40
2019-05-01T23:31:49.283Z,69.40
2019-05-01T23:34:21.075Z,69.80
2019-05-01T23:36:48.419Z,70.00
2019-05-01T23:39:17.114Z,70.20
2019-05-01T23:41:47.403Z,70.30
2019-05-01T23:44:16.024Z,70.60
2019-05-01T23:46:44.718Z,70.70
2019-05-01T23:49:13.347Z,70.70
2019-05-01T23:51:42.058Z,70.80
2019-05-01T23:54:10.695Z,71.00
2019-05-01T23:56:39.301Z,71.20
2019-05-01T23:59:07.948Z,71.30
